N62ET KATL-KRDU
Flight info
| Callsign | N62ET |
|---|---|
| Flight time | 1h 54m |
| Altitude | 11000 |
| Route | EATWO IRQ CAE BUZZY1 |
| Aircraft | DA62/L-SDFGRY/C |
Departure
| Time | 2026-05-05 03:57 |
|---|---|
| Airport | Hartsfield Jackson Atlanta International Airport (KATL) |
Arrival
| Time | 2026-05-05 05:52 |
|---|---|
| Airport | Raleigh-Durham International Airport (KRDU) |
| Time | Latitude | Longitude | Altitude | Speed | Heading |
|---|---|---|---|---|---|
| 2026-05-05 03:41 | 33.65234 | -84.42528 | 986 ft | 0 kts | 100° |
| 2026-05-05 03:50 | 33.65234 | -84.42525 | 986 ft | 0 kts | 100° |
| 2026-05-05 03:51 | 33.65197 | -84.42485 | 985 ft | 13 kts | 138° |
| 2026-05-05 03:51 | 33.65168 | -84.42358 | 982 ft | 17 kts | 96° |
| 2026-05-05 03:51 | 33.65135 | -84.42227 | 979 ft | 16 kts | 153° |
| 2026-05-05 03:51 | 33.65065 | -84.42145 | 978 ft | 15 kts | 92° |
| 2026-05-05 03:52 | 33.65065 | -84.42003 | 975 ft | 19 kts | 91° |
| 2026-05-05 03:52 | 33.65064 | -84.41845 | 975 ft | 18 kts | 90° |
| 2026-05-05 03:52 | 33.65060 | -84.41700 | 975 ft | 13 kts | 104° |
| 2026-05-05 03:52 | 33.65046 | -84.41686 | 975 ft | 0 kts | 183° |
| 2026-05-05 03:55 | 33.65011 | -84.41722 | 975 ft | 11 kts | 225° |
| 2026-05-05 03:55 | 33.64954 | -84.41746 | 974 ft | 7 kts | 252° |
| 2026-05-05 03:55 | 33.64953 | -84.41758 | 974 ft | 3 kts | 275° |
| 2026-05-05 03:56 | 33.64953 | -84.42055 | 976 ft | 64 kts | 270° |
| 2026-05-05 03:56 | 33.64951 | -84.42732 | 1013 ft | 89 kts | 269° |
| 2026-05-05 03:56 | 33.64950 | -84.43496 | 1148 ft | 93 kts | 269° |
| 2026-05-05 03:56 | 33.64952 | -84.44282 | 1314 ft | 96 kts | 270° |
| 2026-05-05 03:57 | 33.64976 | -84.45077 | 1486 ft | 96 kts | 272° |
| 2026-05-05 03:57 | 33.65013 | -84.45927 | 1671 ft | 105 kts | 271° |
| 2026-05-05 03:57 | 33.65043 | -84.46808 | 1940 ft | 105 kts | 271° |
| 2026-05-05 03:57 | 33.65097 | -84.47693 | 2178 ft | 109 kts | 280° |
| 2026-05-05 03:58 | 33.65512 | -84.48443 | 2439 ft | 111 kts | 326° |
| 2026-05-05 03:58 | 33.66242 | -84.48731 | 2699 ft | 112 kts | 353° |
| 2026-05-05 03:58 | 33.67020 | -84.48856 | 2960 ft | 113 kts | 355° |
| 2026-05-05 03:58 | 33.67798 | -84.48966 | 3217 ft | 115 kts | 355° |
| 2026-05-05 03:59 | 33.68596 | -84.49066 | 3475 ft | 116 kts | 2° |
| 2026-05-05 03:59 | 33.69320 | -84.48726 | 3726 ft | 112 kts | 49° |
| 2026-05-05 03:59 | 33.69644 | -84.47933 | 3976 ft | 105 kts | 94° |
| 2026-05-05 03:59 | 33.69455 | -84.47126 | 4239 ft | 99 kts | 123° |
| 2026-05-05 04:00 | 33.69156 | -84.46377 | 4502 ft | 101 kts | 120° |
| 2026-05-05 04:00 | 33.68899 | -84.45600 | 4761 ft | 102 kts | 117° |
| 2026-05-05 04:00 | 33.68679 | -84.44782 | 5023 ft | 104 kts | 114° |
| 2026-05-05 04:00 | 33.68491 | -84.43938 | 5281 ft | 105 kts | 112° |
| 2026-05-05 04:01 | 33.68307 | -84.42960 | 5570 ft | 107 kts | 111° |
| 2026-05-05 04:01 | 33.68164 | -84.42072 | 5826 ft | 109 kts | 110° |
| 2026-05-05 04:01 | 33.68035 | -84.41169 | 6078 ft | 110 kts | 109° |
| 2026-05-05 04:01 | 33.67916 | -84.40247 | 6331 ft | 112 kts | 108° |
| 2026-05-05 04:02 | 33.67806 | -84.39316 | 6579 ft | 114 kts | 108° |
| 2026-05-05 04:02 | 33.67701 | -84.38363 | 6828 ft | 116 kts | 108° |
| 2026-05-05 04:02 | 33.67600 | -84.37395 | 7075 ft | 117 kts | 107° |
| 2026-05-05 04:02 | 33.67501 | -84.36417 | 7320 ft | 119 kts | 107° |
| 2026-05-05 04:03 | 33.67404 | -84.35430 | 7561 ft | 121 kts | 107° |
| 2026-05-05 04:03 | 33.67307 | -84.34409 | 7806 ft | 123 kts | 107° |
| 2026-05-05 04:03 | 33.67210 | -84.33382 | 8047 ft | 125 kts | 107° |
| 2026-05-05 04:03 | 33.67112 | -84.32336 | 8288 ft | 127 kts | 107° |
| 2026-05-05 04:04 | 33.67016 | -84.31290 | 8525 ft | 129 kts | 106° |
| 2026-05-05 04:04 | 33.66891 | -84.30166 | 8665 ft | 140 kts | 99° |
| 2026-05-05 04:04 | 33.66783 | -84.28989 | 8910 ft | 141 kts | 98° |
| 2026-05-05 04:04 | 33.66685 | -84.27822 | 9158 ft | 142 kts | 98° |
| 2026-05-05 04:05 | 33.66583 | -84.26636 | 9402 ft | 143 kts | 98° |
| 2026-05-05 04:05 | 33.66480 | -84.25458 | 9642 ft | 144 kts | 98° |
| 2026-05-05 04:05 | 33.66374 | -84.24255 | 9884 ft | 145 kts | 98° |
| 2026-05-05 04:05 | 33.66266 | -84.23042 | 10125 ft | 146 kts | 98° |
| 2026-05-05 04:06 | 33.66157 | -84.21831 | 10363 ft | 147 kts | 98° |
| 2026-05-05 04:06 | 33.66047 | -84.20605 | 10601 ft | 149 kts | 98° |
| 2026-05-05 04:06 | 33.65934 | -84.19367 | 10838 ft | 150 kts | 98° |
| 2026-05-05 04:06 | 33.65818 | -84.18092 | 10983 ft | 160 kts | 98° |
| 2026-05-05 04:07 | 33.65688 | -84.16693 | 11011 ft | 176 kts | 98° |
| 2026-05-05 04:07 | 33.65550 | -84.15184 | 11011 ft | 190 kts | 98° |
| 2026-05-05 04:07 | 33.65400 | -84.13557 | 11006 ft | 200 kts | 98° |
| 2026-05-05 04:07 | 33.65245 | -84.11859 | 11002 ft | 207 kts | 98° |
| 2026-05-05 04:08 | 33.65086 | -84.10117 | 11000 ft | 212 kts | 98° |
| 2026-05-05 04:08 | 33.64924 | -84.08345 | 10998 ft | 215 kts | 98° |
| 2026-05-05 04:08 | 33.64762 | -84.06575 | 10997 ft | 217 kts | 98° |
| 2026-05-05 04:08 | 33.64596 | -84.04775 | 10997 ft | 218 kts | 98° |
| 2026-05-05 04:09 | 33.64428 | -84.02943 | 10996 ft | 219 kts | 98° |
| 2026-05-05 04:09 | 33.64260 | -84.01131 | 10996 ft | 220 kts | 98° |
| 2026-05-05 04:09 | 33.64092 | -83.99308 | 10996 ft | 220 kts | 98° |
| 2026-05-05 04:09 | 33.63922 | -83.97471 | 10996 ft | 220 kts | 98° |
| 2026-05-05 04:10 | 33.63753 | -83.95654 | 10996 ft | 220 kts | 98° |
| 2026-05-05 04:10 | 33.63582 | -83.93808 | 10996 ft | 221 kts | 98° |
| 2026-05-05 04:10 | 33.63414 | -83.92008 | 10992 ft | 216 kts | 98° |
| 2026-05-05 04:10 | 33.63249 | -83.90228 | 10993 ft | 213 kts | 98° |
| 2026-05-05 04:11 | 33.63084 | -83.88464 | 10994 ft | 210 kts | 98° |
| 2026-05-05 04:11 | 33.62921 | -83.86719 | 10995 ft | 208 kts | 98° |
| 2026-05-05 04:11 | 33.62759 | -83.84988 | 10995 ft | 207 kts | 98° |
| 2026-05-05 04:11 | 33.62600 | -83.83295 | 10996 ft | 206 kts | 98° |
| 2026-05-05 04:12 | 33.62439 | -83.81574 | 10996 ft | 206 kts | 98° |
| 2026-05-05 04:12 | 33.62278 | -83.79869 | 10996 ft | 205 kts | 98° |
| 2026-05-05 04:12 | 33.62118 | -83.78166 | 10997 ft | 205 kts | 98° |
| 2026-05-05 04:12 | 33.61958 | -83.76466 | 10997 ft | 205 kts | 98° |
| 2026-05-05 04:13 | 33.61797 | -83.74771 | 10997 ft | 205 kts | 98° |
| 2026-05-05 04:13 | 33.61771 | -83.73062 | 10998 ft | 205 kts | 87° |
| 2026-05-05 04:13 | 33.61852 | -83.71372 | 10997 ft | 205 kts | 86° |
| 2026-05-05 04:13 | 33.61952 | -83.69672 | 10998 ft | 205 kts | 85° |
| 2026-05-05 04:14 | 33.62058 | -83.67949 | 10998 ft | 205 kts | 85° |
| 2026-05-05 04:14 | 33.62165 | -83.66237 | 10998 ft | 205 kts | 85° |
| 2026-05-05 04:14 | 33.62272 | -83.64538 | 10998 ft | 205 kts | 85° |
| 2026-05-05 04:14 | 33.62379 | -83.62838 | 10998 ft | 205 kts | 85° |
| 2026-05-05 04:15 | 33.62486 | -83.61130 | 10998 ft | 205 kts | 85° |
| 2026-05-05 04:15 | 33.62594 | -83.59409 | 10998 ft | 205 kts | 85° |
| 2026-05-05 04:15 | 33.62701 | -83.57702 | 10999 ft | 205 kts | 85° |
| 2026-05-05 04:15 | 33.62808 | -83.56001 | 10999 ft | 205 kts | 85° |
| 2026-05-05 04:16 | 33.62913 | -83.54298 | 10999 ft | 205 kts | 85° |
| 2026-05-05 04:16 | 33.63020 | -83.52578 | 10999 ft | 205 kts | 85° |
| 2026-05-05 04:16 | 33.63126 | -83.50881 | 10999 ft | 205 kts | 85° |
| 2026-05-05 04:16 | 33.63231 | -83.49177 | 10999 ft | 205 kts | 85° |
| 2026-05-05 04:17 | 33.63338 | -83.47450 | 10999 ft | 205 kts | 85° |
| 2026-05-05 04:17 | 33.63443 | -83.45745 | 10999 ft | 206 kts | 85° |
| 2026-05-05 04:17 | 33.63547 | -83.44048 | 11000 ft | 206 kts | 85° |
| 2026-05-05 04:17 | 33.63653 | -83.42324 | 11000 ft | 206 kts | 85° |
| 2026-05-05 04:18 | 33.63759 | -83.40603 | 11000 ft | 206 kts | 85° |
| 2026-05-05 04:18 | 33.63864 | -83.38882 | 11000 ft | 206 kts | 85° |
| 2026-05-05 04:18 | 33.63967 | -83.37182 | 11000 ft | 206 kts | 85° |
| 2026-05-05 04:18 | 33.64072 | -83.35458 | 11000 ft | 206 kts | 85° |
| 2026-05-05 04:19 | 33.64177 | -83.33726 | 10994 ft | 206 kts | 86° |
| 2026-05-05 04:19 | 33.64276 | -83.32018 | 10997 ft | 205 kts | 85° |
| 2026-05-05 04:19 | 33.64375 | -83.30321 | 10997 ft | 204 kts | 84° |
| 2026-05-05 04:19 | 33.64480 | -83.28629 | 10998 ft | 204 kts | 84° |
| 2026-05-05 04:20 | 33.64585 | -83.26916 | 10998 ft | 203 kts | 84° |
| 2026-05-05 04:20 | 33.64688 | -83.25229 | 10998 ft | 203 kts | 84° |
| 2026-05-05 04:20 | 33.64789 | -83.23543 | 10998 ft | 203 kts | 84° |
| 2026-05-05 04:20 | 33.64891 | -83.21838 | 10999 ft | 203 kts | 84° |
| 2026-05-05 04:21 | 33.64992 | -83.20148 | 10999 ft | 203 kts | 84° |
| 2026-05-05 04:21 | 33.65092 | -83.18466 | 10999 ft | 203 kts | 84° |
| 2026-05-05 04:21 | 33.65193 | -83.16767 | 10999 ft | 203 kts | 84° |
| 2026-05-05 04:21 | 33.65293 | -83.15070 | 10999 ft | 203 kts | 84° |
| 2026-05-05 04:22 | 33.65393 | -83.13387 | 10999 ft | 203 kts | 84° |
| 2026-05-05 04:22 | 33.65493 | -83.11688 | 10999 ft | 203 kts | 84° |
| 2026-05-05 04:22 | 33.65593 | -83.09987 | 11000 ft | 203 kts | 84° |
| 2026-05-05 04:22 | 33.65691 | -83.08311 | 11000 ft | 203 kts | 84° |
| 2026-05-05 04:23 | 33.65791 | -83.06604 | 11000 ft | 203 kts | 84° |
| 2026-05-05 04:23 | 33.65889 | -83.04919 | 11000 ft | 203 kts | 84° |
| 2026-05-05 04:23 | 33.65988 | -83.03218 | 11000 ft | 203 kts | 84° |
| 2026-05-05 04:23 | 33.66087 | -83.01514 | 11000 ft | 203 kts | 84° |
| 2026-05-05 04:24 | 33.66185 | -82.99824 | 11000 ft | 204 kts | 84° |
| 2026-05-05 04:24 | 33.66282 | -82.98130 | 11000 ft | 204 kts | 84° |
| 2026-05-05 04:24 | 33.66380 | -82.96429 | 11001 ft | 204 kts | 84° |
| 2026-05-05 04:25 | 33.66575 | -82.93048 | 11001 ft | 204 kts | 84° |
| 2026-05-05 04:25 | 33.66672 | -82.91344 | 11001 ft | 204 kts | 84° |
| 2026-05-05 04:25 | 33.66769 | -82.89643 | 11001 ft | 204 kts | 84° |
| 2026-05-05 04:25 | 33.66866 | -82.87943 | 11001 ft | 204 kts | 84° |
| 2026-05-05 04:26 | 33.66962 | -82.86258 | 11001 ft | 204 kts | 84° |
| 2026-05-05 04:26 | 33.67058 | -82.84556 | 11001 ft | 204 kts | 84° |
| 2026-05-05 04:26 | 33.67154 | -82.82858 | 11001 ft | 204 kts | 84° |
| 2026-05-05 04:26 | 33.67250 | -82.81149 | 11002 ft | 204 kts | 84° |
| 2026-05-05 04:27 | 33.67346 | -82.79451 | 11002 ft | 204 kts | 84° |
| 2026-05-05 04:27 | 33.67441 | -82.77747 | 11002 ft | 204 kts | 84° |
| 2026-05-05 04:27 | 33.67536 | -82.76047 | 11002 ft | 204 kts | 84° |
| 2026-05-05 04:27 | 33.67632 | -82.74345 | 11002 ft | 204 kts | 84° |
| 2026-05-05 04:28 | 33.67726 | -82.72649 | 11002 ft | 204 kts | 84° |
| 2026-05-05 04:28 | 33.67820 | -82.70952 | 11002 ft | 204 kts | 84° |
| 2026-05-05 04:28 | 33.67915 | -82.69247 | 11002 ft | 204 kts | 84° |
| 2026-05-05 04:28 | 33.68009 | -82.67548 | 11003 ft | 204 kts | 84° |
| 2026-05-05 04:29 | 33.68103 | -82.65846 | 11003 ft | 204 kts | 84° |
| 2026-05-05 04:29 | 33.68196 | -82.64142 | 11003 ft | 204 kts | 84° |
| 2026-05-05 04:29 | 33.68290 | -82.62430 | 11003 ft | 204 kts | 84° |
| 2026-05-05 04:29 | 33.68383 | -82.60736 | 11003 ft | 204 kts | 84° |
| 2026-05-05 04:30 | 33.68476 | -82.59030 | 11003 ft | 204 kts | 84° |
| 2026-05-05 04:30 | 33.68569 | -82.57320 | 11003 ft | 205 kts | 84° |
| 2026-05-05 04:30 | 33.68662 | -82.55619 | 11003 ft | 205 kts | 84° |
| 2026-05-05 04:30 | 33.68754 | -82.53915 | 11003 ft | 205 kts | 84° |
| 2026-05-05 04:31 | 33.68847 | -82.52192 | 11004 ft | 205 kts | 84° |
| 2026-05-05 04:31 | 33.68938 | -82.50504 | 11004 ft | 205 kts | 84° |
| 2026-05-05 04:31 | 33.69030 | -82.48779 | 11004 ft | 205 kts | 84° |
| 2026-05-05 04:31 | 33.69122 | -82.47080 | 11004 ft | 205 kts | 84° |
| 2026-05-05 04:32 | 33.69212 | -82.45386 | 11004 ft | 205 kts | 84° |
| 2026-05-05 04:32 | 33.69304 | -82.43668 | 11004 ft | 205 kts | 84° |
| 2026-05-05 04:32 | 33.69395 | -82.41961 | 11004 ft | 205 kts | 84° |
| 2026-05-05 04:32 | 33.69485 | -82.40247 | 11005 ft | 205 kts | 84° |
| 2026-05-05 04:33 | 33.69576 | -82.38542 | 11005 ft | 205 kts | 84° |
| 2026-05-05 04:33 | 33.69666 | -82.36834 | 11005 ft | 205 kts | 84° |
| 2026-05-05 04:33 | 33.69757 | -82.35112 | 11005 ft | 205 kts | 84° |
| 2026-05-05 04:33 | 33.69847 | -82.33401 | 10999 ft | 205 kts | 85° |
| 2026-05-05 04:34 | 33.69936 | -82.31690 | 10998 ft | 204 kts | 85° |
| 2026-05-05 04:34 | 33.70026 | -82.29974 | 10997 ft | 204 kts | 90° |
| 2026-05-05 04:34 | 33.70134 | -82.28294 | 11056 ft | 202 kts | 90° |
| 2026-05-05 04:34 | 33.70216 | -82.26608 | 11068 ft | 203 kts | 90° |
| 2026-05-05 04:35 | 33.70297 | -82.24903 | 11069 ft | 205 kts | 90° |
| 2026-05-05 04:35 | 33.70381 | -82.23198 | 11070 ft | 206 kts | 90° |
| 2026-05-05 04:35 | 33.70467 | -82.21481 | 11070 ft | 206 kts | 90° |
| 2026-05-05 04:35 | 33.70555 | -82.19765 | 11069 ft | 207 kts | 90° |
| 2026-05-05 04:36 | 33.70644 | -82.18018 | 11069 ft | 207 kts | 90° |
| 2026-05-05 04:36 | 33.70763 | -82.16286 | 11068 ft | 208 kts | 84° |
| 2026-05-05 04:36 | 33.70976 | -82.14576 | 11069 ft | 209 kts | 83° |
| 2026-05-05 04:36 | 33.71209 | -82.12849 | 11070 ft | 209 kts | 82° |
| 2026-05-05 04:37 | 33.71448 | -82.11126 | 11070 ft | 209 kts | 82° |
| 2026-05-05 04:37 | 33.71688 | -82.09397 | 11070 ft | 209 kts | 82° |
| 2026-05-05 04:37 | 33.71928 | -82.07672 | 11070 ft | 209 kts | 82° |
| 2026-05-05 04:37 | 33.72168 | -82.05948 | 11070 ft | 209 kts | 82° |
| 2026-05-05 04:38 | 33.72406 | -82.04231 | 11070 ft | 209 kts | 82° |
| 2026-05-05 04:38 | 33.72648 | -82.02496 | 11070 ft | 210 kts | 82° |
| 2026-05-05 04:38 | 33.72887 | -82.00766 | 11070 ft | 210 kts | 82° |
| 2026-05-05 04:38 | 33.73127 | -81.99039 | 11071 ft | 210 kts | 82° |
| 2026-05-05 04:39 | 33.73365 | -81.97321 | 11071 ft | 210 kts | 82° |
| 2026-05-05 04:39 | 33.73605 | -81.95586 | 11071 ft | 210 kts | 82° |
| 2026-05-05 04:39 | 33.73844 | -81.93854 | 11071 ft | 210 kts | 82° |
| 2026-05-05 04:39 | 33.74083 | -81.92122 | 11071 ft | 210 kts | 82° |
| 2026-05-05 04:40 | 33.74322 | -81.90383 | 11071 ft | 210 kts | 82° |
| 2026-05-05 04:40 | 33.74559 | -81.88666 | 11071 ft | 210 kts | 82° |
| 2026-05-05 04:40 | 33.74798 | -81.86929 | 11072 ft | 210 kts | 82° |
| 2026-05-05 04:40 | 33.75038 | -81.85183 | 11072 ft | 210 kts | 82° |
| 2026-05-05 04:41 | 33.75275 | -81.83456 | 11072 ft | 210 kts | 82° |
| 2026-05-05 04:41 | 33.75511 | -81.81733 | 11072 ft | 210 kts | 82° |
| 2026-05-05 04:41 | 33.75748 | -81.80002 | 11072 ft | 210 kts | 82° |
| 2026-05-05 04:41 | 33.75988 | -81.78251 | 11072 ft | 210 kts | 82° |
| 2026-05-05 04:42 | 33.76224 | -81.76524 | 11073 ft | 210 kts | 82° |
| 2026-05-05 04:42 | 33.76460 | -81.74789 | 11073 ft | 210 kts | 82° |
| 2026-05-05 04:42 | 33.76698 | -81.73045 | 11073 ft | 210 kts | 82° |
| 2026-05-05 04:42 | 33.76934 | -81.71317 | 11073 ft | 210 kts | 82° |
| 2026-05-05 04:43 | 33.77169 | -81.69588 | 11073 ft | 210 kts | 82° |
| 2026-05-05 04:43 | 33.77405 | -81.67847 | 11073 ft | 210 kts | 82° |
| 2026-05-05 04:43 | 33.77641 | -81.66112 | 11073 ft | 211 kts | 82° |
| 2026-05-05 04:43 | 33.77877 | -81.64374 | 11074 ft | 211 kts | 82° |
| 2026-05-05 04:44 | 33.78112 | -81.62637 | 11074 ft | 211 kts | 82° |
| 2026-05-05 04:44 | 33.78348 | -81.60892 | 11074 ft | 211 kts | 82° |
| 2026-05-05 04:44 | 33.78583 | -81.59155 | 11074 ft | 211 kts | 82° |
| 2026-05-05 04:44 | 33.78819 | -81.57407 | 11074 ft | 211 kts | 82° |
| 2026-05-05 04:45 | 33.79054 | -81.55670 | 11074 ft | 211 kts | 82° |
| 2026-05-05 04:45 | 33.79289 | -81.53926 | 11074 ft | 211 kts | 82° |
| 2026-05-05 04:45 | 33.79523 | -81.52187 | 11075 ft | 211 kts | 82° |
| 2026-05-05 04:45 | 33.79755 | -81.50464 | 11075 ft | 211 kts | 82° |
| 2026-05-05 04:46 | 33.79989 | -81.48716 | 11075 ft | 211 kts | 82° |
| 2026-05-05 04:46 | 33.80224 | -81.46969 | 11075 ft | 211 kts | 82° |
| 2026-05-05 04:46 | 33.80457 | -81.45225 | 11075 ft | 211 kts | 82° |
| 2026-05-05 04:46 | 33.80690 | -81.43488 | 11075 ft | 211 kts | 82° |
| 2026-05-05 04:47 | 33.80922 | -81.41752 | 11075 ft | 211 kts | 82° |
| 2026-05-05 04:47 | 33.81156 | -81.40002 | 11076 ft | 211 kts | 82° |
| 2026-05-05 04:47 | 33.81390 | -81.38247 | 11076 ft | 211 kts | 82° |
| 2026-05-05 04:47 | 33.81622 | -81.36507 | 11076 ft | 211 kts | 82° |
| 2026-05-05 04:48 | 33.81856 | -81.34744 | 11075 ft | 211 kts | 83° |
| 2026-05-05 04:48 | 33.82090 | -81.32995 | 11069 ft | 211 kts | 83° |
| 2026-05-05 04:48 | 33.82319 | -81.31267 | 11068 ft | 210 kts | 83° |
| 2026-05-05 04:48 | 33.82550 | -81.29524 | 11068 ft | 210 kts | 83° |
| 2026-05-05 04:49 | 33.82778 | -81.27801 | 11068 ft | 210 kts | 83° |
| 2026-05-05 04:49 | 33.83010 | -81.26055 | 11069 ft | 210 kts | 83° |
| 2026-05-05 04:49 | 33.83236 | -81.24322 | 11035 ft | 211 kts | 83° |
| 2026-05-05 04:49 | 33.83468 | -81.22569 | 11026 ft | 211 kts | 82° |
| 2026-05-05 04:50 | 33.83698 | -81.20832 | 11024 ft | 211 kts | 82° |
| 2026-05-05 04:50 | 33.83928 | -81.19099 | 11024 ft | 210 kts | 82° |
| 2026-05-05 04:50 | 33.84158 | -81.17354 | 11024 ft | 210 kts | 82° |
| 2026-05-05 04:50 | 33.84387 | -81.15612 | 11024 ft | 210 kts | 82° |
| 2026-05-05 04:51 | 33.84615 | -81.13873 | 11024 ft | 210 kts | 82° |
| 2026-05-05 04:51 | 33.84840 | -81.12157 | 11025 ft | 210 kts | 82° |
| 2026-05-05 04:51 | 33.85068 | -81.10418 | 11025 ft | 210 kts | 82° |
| 2026-05-05 04:51 | 33.85294 | -81.08691 | 11025 ft | 210 kts | 82° |
| 2026-05-05 04:52 | 33.85524 | -81.06951 | 11024 ft | 210 kts | 81° |
| 2026-05-05 04:52 | 33.86156 | -81.05396 | 11031 ft | 205 kts | 47° |
| 2026-05-05 04:52 | 33.87102 | -81.04131 | 11026 ft | 203 kts | 39° |
| 2026-05-05 04:52 | 33.88126 | -81.02947 | 11026 ft | 203 kts | 36° |
| 2026-05-05 04:53 | 33.89155 | -81.01815 | 11026 ft | 202 kts | 35° |
| 2026-05-05 04:53 | 33.90212 | -81.00676 | 11026 ft | 202 kts | 35° |
| 2026-05-05 04:53 | 33.91259 | -80.99559 | 11026 ft | 202 kts | 34° |
| 2026-05-05 04:53 | 33.92310 | -80.98442 | 11026 ft | 202 kts | 34° |
| 2026-05-05 04:54 | 33.93377 | -80.97310 | 11026 ft | 202 kts | 34° |
| 2026-05-05 04:54 | 33.94430 | -80.96195 | 11026 ft | 202 kts | 34° |
| 2026-05-05 04:54 | 33.95478 | -80.95084 | 11026 ft | 202 kts | 34° |
| 2026-05-05 04:54 | 33.96542 | -80.93958 | 11026 ft | 203 kts | 34° |
| 2026-05-05 04:55 | 33.97601 | -80.92836 | 11027 ft | 203 kts | 34° |
| 2026-05-05 04:55 | 33.98663 | -80.91711 | 11027 ft | 203 kts | 34° |
| 2026-05-05 04:55 | 33.99719 | -80.90591 | 11027 ft | 203 kts | 34° |
| 2026-05-05 04:55 | 34.00773 | -80.89475 | 11027 ft | 203 kts | 34° |
| 2026-05-05 04:56 | 34.01840 | -80.88342 | 11027 ft | 203 kts | 34° |
| 2026-05-05 04:56 | 34.02891 | -80.87228 | 11027 ft | 203 kts | 34° |
| 2026-05-05 04:56 | 34.03956 | -80.86097 | 11027 ft | 203 kts | 34° |
| 2026-05-05 04:56 | 34.05016 | -80.84972 | 11027 ft | 203 kts | 34° |
| 2026-05-05 04:57 | 34.06076 | -80.83846 | 11027 ft | 203 kts | 34° |
| 2026-05-05 04:57 | 34.07126 | -80.82731 | 11028 ft | 203 kts | 34° |
| 2026-05-05 04:57 | 34.08181 | -80.81609 | 11028 ft | 203 kts | 34° |
| 2026-05-05 04:57 | 34.09240 | -80.80483 | 11028 ft | 203 kts | 34° |
| 2026-05-05 04:58 | 34.10312 | -80.79343 | 11027 ft | 203 kts | 34° |
| 2026-05-05 04:58 | 34.11342 | -80.78247 | 11026 ft | 203 kts | 34° |
| 2026-05-05 04:58 | 34.12400 | -80.77122 | 11025 ft | 203 kts | 34° |
| 2026-05-05 04:58 | 34.13460 | -80.75993 | 11026 ft | 203 kts | 34° |
| 2026-05-05 04:59 | 34.14524 | -80.74860 | 11026 ft | 203 kts | 34° |
| 2026-05-05 04:59 | 34.15572 | -80.73743 | 11026 ft | 203 kts | 34° |
| 2026-05-05 04:59 | 34.16636 | -80.72610 | 11026 ft | 203 kts | 34° |
| 2026-05-05 04:59 | 34.17687 | -80.71489 | 11026 ft | 203 kts | 34° |
| 2026-05-05 05:00 | 34.18740 | -80.70365 | 11026 ft | 203 kts | 34° |
| 2026-05-05 05:00 | 34.19801 | -80.69235 | 11026 ft | 203 kts | 34° |
| 2026-05-05 05:00 | 34.20857 | -80.68108 | 11027 ft | 203 kts | 34° |
| 2026-05-05 05:00 | 34.21916 | -80.66976 | 11027 ft | 203 kts | 34° |
| 2026-05-05 05:01 | 34.22974 | -80.65846 | 11027 ft | 203 kts | 34° |
| 2026-05-05 05:01 | 34.24037 | -80.64711 | 11027 ft | 203 kts | 34° |
| 2026-05-05 05:01 | 34.25084 | -80.63592 | 11027 ft | 203 kts | 34° |
| 2026-05-05 05:01 | 34.26151 | -80.62451 | 11027 ft | 203 kts | 34° |
| 2026-05-05 05:02 | 34.27198 | -80.61332 | 11027 ft | 203 kts | 34° |
| 2026-05-05 05:02 | 34.28265 | -80.60191 | 11027 ft | 203 kts | 34° |
| 2026-05-05 05:02 | 34.29319 | -80.59062 | 11027 ft | 203 kts | 34° |
| 2026-05-05 05:02 | 34.30374 | -80.57933 | 11028 ft | 203 kts | 34° |
| 2026-05-05 05:03 | 34.31434 | -80.56797 | 11028 ft | 203 kts | 34° |
| 2026-05-05 05:03 | 34.32489 | -80.55667 | 11028 ft | 203 kts | 34° |
| 2026-05-05 05:03 | 34.33548 | -80.54533 | 11028 ft | 203 kts | 34° |
| 2026-05-05 05:03 | 34.34604 | -80.53400 | 11028 ft | 203 kts | 34° |
| 2026-05-05 05:04 | 34.35660 | -80.52268 | 11028 ft | 203 kts | 34° |
| 2026-05-05 05:04 | 34.36723 | -80.51128 | 11028 ft | 203 kts | 34° |
| 2026-05-05 05:04 | 34.37775 | -80.49992 | 11040 ft | 202 kts | 33° |
| 2026-05-05 05:04 | 34.38825 | -80.48858 | 11039 ft | 201 kts | 33° |
| 2026-05-05 05:05 | 34.39871 | -80.47738 | 11040 ft | 201 kts | 32° |
| 2026-05-05 05:05 | 34.40918 | -80.46618 | 11040 ft | 200 kts | 32° |
| 2026-05-05 05:05 | 34.41954 | -80.45506 | 11040 ft | 200 kts | 33° |
| 2026-05-05 05:05 | 34.43000 | -80.44383 | 11041 ft | 200 kts | 33° |
| 2026-05-05 05:06 | 34.44046 | -80.43259 | 11041 ft | 200 kts | 33° |
| 2026-05-05 05:06 | 34.45072 | -80.42155 | 11041 ft | 200 kts | 33° |
| 2026-05-05 05:06 | 34.46110 | -80.41039 | 11041 ft | 200 kts | 33° |
| 2026-05-05 05:06 | 34.47161 | -80.39907 | 11041 ft | 200 kts | 33° |
| 2026-05-05 05:07 | 34.48192 | -80.38797 | 11041 ft | 200 kts | 33° |
| 2026-05-05 05:07 | 34.49226 | -80.37684 | 11041 ft | 200 kts | 33° |
| 2026-05-05 05:07 | 34.50271 | -80.36557 | 11041 ft | 200 kts | 33° |
| 2026-05-05 05:07 | 34.51310 | -80.35436 | 11042 ft | 200 kts | 33° |
| 2026-05-05 05:08 | 34.52359 | -80.34306 | 11035 ft | 200 kts | 33° |
| 2026-05-05 05:08 | 34.53389 | -80.33195 | 11033 ft | 199 kts | 33° |
| 2026-05-05 05:08 | 34.54423 | -80.32079 | 11033 ft | 199 kts | 33° |
| 2026-05-05 05:08 | 34.55458 | -80.30961 | 11033 ft | 198 kts | 33° |
| 2026-05-05 05:09 | 34.56493 | -80.29843 | 11033 ft | 198 kts | 33° |
| 2026-05-05 05:09 | 34.57513 | -80.28741 | 11034 ft | 198 kts | 33° |
| 2026-05-05 05:09 | 34.58550 | -80.27621 | 11034 ft | 198 kts | 33° |
| 2026-05-05 05:09 | 34.59579 | -80.26508 | 11034 ft | 198 kts | 33° |
| 2026-05-05 05:10 | 34.60609 | -80.25394 | 11034 ft | 198 kts | 33° |
| 2026-05-05 05:10 | 34.61625 | -80.24295 | 11034 ft | 198 kts | 33° |
| 2026-05-05 05:10 | 34.62662 | -80.23173 | 11034 ft | 198 kts | 33° |
| 2026-05-05 05:10 | 34.63688 | -80.22063 | 11034 ft | 198 kts | 33° |
| 2026-05-05 05:11 | 34.64720 | -80.20945 | 11034 ft | 198 kts | 33° |
| 2026-05-05 05:11 | 34.65751 | -80.19829 | 11035 ft | 198 kts | 33° |
| 2026-05-05 05:11 | 34.66770 | -80.18724 | 11035 ft | 198 kts | 33° |
| 2026-05-05 05:11 | 34.67794 | -80.17614 | 11035 ft | 198 kts | 33° |
| 2026-05-05 05:12 | 34.68823 | -80.16499 | 11035 ft | 198 kts | 33° |
| 2026-05-05 05:12 | 34.69850 | -80.15384 | 11035 ft | 198 kts | 33° |
| 2026-05-05 05:12 | 34.70881 | -80.14265 | 11035 ft | 198 kts | 33° |
| 2026-05-05 05:12 | 34.71913 | -80.13145 | 11035 ft | 198 kts | 33° |
| 2026-05-05 05:13 | 34.72946 | -80.12022 | 11035 ft | 198 kts | 33° |
| 2026-05-05 05:13 | 34.73968 | -80.10913 | 11035 ft | 198 kts | 33° |
| 2026-05-05 05:13 | 34.75003 | -80.09788 | 11036 ft | 198 kts | 33° |
| 2026-05-05 05:13 | 34.76027 | -80.08675 | 11036 ft | 198 kts | 33° |
| 2026-05-05 05:14 | 34.77063 | -80.07548 | 11036 ft | 198 kts | 33° |
| 2026-05-05 05:14 | 34.78086 | -80.06435 | 11036 ft | 198 kts | 33° |
| 2026-05-05 05:14 | 34.79123 | -80.05307 | 11036 ft | 199 kts | 33° |
| 2026-05-05 05:14 | 34.80145 | -80.04194 | 11036 ft | 199 kts | 33° |
| 2026-05-05 05:15 | 34.81177 | -80.03070 | 11036 ft | 199 kts | 33° |
| 2026-05-05 05:15 | 34.82204 | -80.01952 | 11036 ft | 199 kts | 33° |
| 2026-05-05 05:15 | 34.83234 | -80.00829 | 11036 ft | 199 kts | 33° |
| 2026-05-05 05:15 | 34.84265 | -79.99706 | 11036 ft | 199 kts | 33° |
| 2026-05-05 05:16 | 34.85292 | -79.98586 | 11037 ft | 199 kts | 33° |
| 2026-05-05 05:16 | 34.86332 | -79.97451 | 11037 ft | 199 kts | 33° |
| 2026-05-05 05:16 | 34.87358 | -79.96331 | 11037 ft | 199 kts | 33° |
| 2026-05-05 05:16 | 34.88393 | -79.95202 | 11037 ft | 199 kts | 33° |
| 2026-05-05 05:17 | 34.89420 | -79.94080 | 11037 ft | 199 kts | 33° |
| 2026-05-05 05:17 | 34.90447 | -79.92959 | 11037 ft | 199 kts | 33° |
| 2026-05-05 05:17 | 34.91473 | -79.91837 | 11037 ft | 199 kts | 33° |
| 2026-05-05 05:17 | 34.92513 | -79.90700 | 11037 ft | 199 kts | 33° |
| 2026-05-05 05:18 | 34.93537 | -79.89580 | 11037 ft | 199 kts | 33° |
| 2026-05-05 05:18 | 34.94567 | -79.88454 | 11038 ft | 199 kts | 33° |
| 2026-05-05 05:18 | 34.95594 | -79.87329 | 11038 ft | 199 kts | 33° |
| 2026-05-05 05:18 | 34.96630 | -79.86196 | 11038 ft | 199 kts | 33° |
| 2026-05-05 05:19 | 34.97655 | -79.85073 | 11038 ft | 199 kts | 33° |
| 2026-05-05 05:19 | 34.98685 | -79.83944 | 11038 ft | 199 kts | 33° |
| 2026-05-05 05:19 | 34.99719 | -79.82812 | 11038 ft | 199 kts | 40° |
| 2026-05-05 05:19 | 35.00767 | -79.81690 | 11028 ft | 200 kts | 38° |
| 2026-05-05 05:20 | 35.01796 | -79.80553 | 11026 ft | 200 kts | 38° |
| 2026-05-05 05:20 | 35.02830 | -79.79411 | 11026 ft | 200 kts | 38° |
| 2026-05-05 05:20 | 35.03865 | -79.78270 | 11026 ft | 200 kts | 38° |
| 2026-05-05 05:20 | 35.04893 | -79.77138 | 11026 ft | 200 kts | 38° |
| 2026-05-05 05:21 | 35.05931 | -79.75997 | 11026 ft | 200 kts | 38° |
| 2026-05-05 05:21 | 35.06952 | -79.74875 | 11026 ft | 200 kts | 38° |
| 2026-05-05 05:21 | 35.07987 | -79.73737 | 11026 ft | 200 kts | 38° |
| 2026-05-05 05:21 | 35.09021 | -79.72600 | 11026 ft | 200 kts | 38° |
| 2026-05-05 05:22 | 35.10057 | -79.71460 | 11026 ft | 200 kts | 38° |
| 2026-05-05 05:22 | 35.11126 | -79.70284 | 11024 ft | 200 kts | 38° |
| 2026-05-05 05:22 | 35.12164 | -79.69141 | 11023 ft | 200 kts | 38° |
| 2026-05-05 05:22 | 35.13194 | -79.68007 | 11023 ft | 200 kts | 38° |
| 2026-05-05 05:23 | 35.14228 | -79.66869 | 11024 ft | 200 kts | 38° |
| 2026-05-05 05:23 | 35.15258 | -79.65734 | 11024 ft | 200 kts | 38° |
| 2026-05-05 05:23 | 35.16289 | -79.64597 | 11024 ft | 199 kts | 38° |
| 2026-05-05 05:23 | 35.17317 | -79.63464 | 11024 ft | 199 kts | 38° |
| 2026-05-05 05:24 | 35.18353 | -79.62322 | 11024 ft | 199 kts | 38° |
| 2026-05-05 05:24 | 35.19372 | -79.61198 | 11024 ft | 199 kts | 38° |
| 2026-05-05 05:24 | 35.20410 | -79.60052 | 11024 ft | 200 kts | 38° |
| 2026-05-05 05:24 | 35.21462 | -79.58972 | 11020 ft | 197 kts | 28° |
| 2026-05-05 05:25 | 35.22618 | -79.58092 | 11025 ft | 196 kts | 25° |
| 2026-05-05 05:25 | 35.23806 | -79.57243 | 11025 ft | 196 kts | 24° |
| 2026-05-05 05:25 | 35.24970 | -79.56426 | 11025 ft | 196 kts | 24° |
| 2026-05-05 05:25 | 35.26154 | -79.55598 | 11025 ft | 196 kts | 23° |
| 2026-05-05 05:26 | 35.27339 | -79.54771 | 11025 ft | 196 kts | 23° |
| 2026-05-05 05:26 | 35.28519 | -79.53949 | 11025 ft | 196 kts | 23° |
| 2026-05-05 05:26 | 35.29707 | -79.53121 | 11025 ft | 196 kts | 23° |
| 2026-05-05 05:26 | 35.30883 | -79.52302 | 11025 ft | 196 kts | 23° |
| 2026-05-05 05:27 | 35.32074 | -79.51472 | 11025 ft | 196 kts | 23° |
| 2026-05-05 05:27 | 35.33263 | -79.50643 | 11025 ft | 196 kts | 23° |
| 2026-05-05 05:27 | 35.35625 | -79.48996 | 11025 ft | 196 kts | 23° |
| 2026-05-05 05:28 | 35.36812 | -79.48167 | 11026 ft | 196 kts | 23° |
| 2026-05-05 05:28 | 35.37996 | -79.47341 | 11026 ft | 196 kts | 23° |
| 2026-05-05 05:28 | 35.39176 | -79.46517 | 11026 ft | 196 kts | 23° |
| 2026-05-05 05:28 | 35.40360 | -79.45691 | 11026 ft | 196 kts | 23° |
| 2026-05-05 05:29 | 35.41542 | -79.44865 | 11026 ft | 196 kts | 23° |
| 2026-05-05 05:29 | 35.42721 | -79.44041 | 11026 ft | 196 kts | 23° |
| 2026-05-05 05:29 | 35.43912 | -79.43209 | 11026 ft | 196 kts | 23° |
| 2026-05-05 05:29 | 35.45097 | -79.42380 | 11026 ft | 196 kts | 23° |
| 2026-05-05 05:30 | 35.46269 | -79.41560 | 11026 ft | 196 kts | 23° |
| 2026-05-05 05:30 | 35.47459 | -79.40727 | 11026 ft | 196 kts | 23° |
| 2026-05-05 05:30 | 35.48645 | -79.39896 | 11026 ft | 196 kts | 23° |
| 2026-05-05 05:30 | 35.49838 | -79.39058 | 11025 ft | 197 kts | 26° |
| 2026-05-05 05:31 | 35.50841 | -79.37891 | 11030 ft | 201 kts | 46° |
| 2026-05-05 05:31 | 35.51723 | -79.36567 | 11028 ft | 202 kts | 49° |
| 2026-05-05 05:31 | 35.52589 | -79.35197 | 11027 ft | 202 kts | 50° |
| 2026-05-05 05:31 | 35.53438 | -79.33831 | 11022 ft | 202 kts | 51° |
| 2026-05-05 05:32 | 35.54292 | -79.32448 | 11021 ft | 202 kts | 51° |
| 2026-05-05 05:32 | 35.55140 | -79.31069 | 11021 ft | 202 kts | 51° |
| 2026-05-05 05:32 | 35.55983 | -79.29697 | 11021 ft | 202 kts | 51° |
| 2026-05-05 05:32 | 35.56828 | -79.28319 | 11021 ft | 201 kts | 51° |
| 2026-05-05 05:33 | 35.57667 | -79.26951 | 11021 ft | 201 kts | 51° |
| 2026-05-05 05:33 | 35.58508 | -79.25579 | 11021 ft | 201 kts | 51° |
| 2026-05-05 05:33 | 35.59358 | -79.24192 | 11022 ft | 201 kts | 51° |
| 2026-05-05 05:33 | 35.60192 | -79.22828 | 11022 ft | 201 kts | 51° |
| 2026-05-05 05:34 | 35.61038 | -79.21446 | 11022 ft | 201 kts | 51° |
| 2026-05-05 05:34 | 35.61878 | -79.20073 | 11022 ft | 201 kts | 51° |
| 2026-05-05 05:34 | 35.62715 | -79.18705 | 11022 ft | 201 kts | 51° |
| 2026-05-05 05:34 | 35.63561 | -79.17319 | 11012 ft | 201 kts | 51° |
| 2026-05-05 05:35 | 35.64396 | -79.15952 | 11008 ft | 200 kts | 51° |
| 2026-05-05 05:35 | 35.65231 | -79.14586 | 11008 ft | 200 kts | 51° |
| 2026-05-05 05:35 | 35.66064 | -79.13223 | 11008 ft | 199 kts | 51° |
| 2026-05-05 05:35 | 35.66897 | -79.11858 | 11008 ft | 199 kts | 51° |
| 2026-05-05 05:36 | 35.67730 | -79.10492 | 11008 ft | 199 kts | 51° |
| 2026-05-05 05:36 | 35.68556 | -79.09138 | 11008 ft | 199 kts | 51° |
| 2026-05-05 05:36 | 35.69385 | -79.07777 | 11009 ft | 199 kts | 51° |
| 2026-05-05 05:36 | 35.70218 | -79.06410 | 11009 ft | 199 kts | 51° |
| 2026-05-05 05:37 | 35.71040 | -79.05061 | 11009 ft | 199 kts | 51° |
| 2026-05-05 05:37 | 35.71869 | -79.03700 | 11009 ft | 199 kts | 51° |
| 2026-05-05 05:37 | 35.72696 | -79.02340 | 11009 ft | 199 kts | 51° |
| 2026-05-05 05:37 | 35.73522 | -79.00982 | 11009 ft | 199 kts | 51° |
| 2026-05-05 05:38 | 35.74356 | -78.99611 | 11009 ft | 199 kts | 51° |
| 2026-05-05 05:38 | 35.75182 | -78.98251 | 11009 ft | 199 kts | 51° |
| 2026-05-05 05:38 | 35.76004 | -78.96900 | 11009 ft | 199 kts | 51° |
| 2026-05-05 05:38 | 35.76837 | -78.95527 | 11010 ft | 199 kts | 51° |
| 2026-05-05 05:39 | 35.77665 | -78.94164 | 11010 ft | 199 kts | 51° |
| 2026-05-05 05:39 | 35.78490 | -78.92805 | 11010 ft | 199 kts | 51° |
| 2026-05-05 05:39 | 35.79311 | -78.91453 | 11010 ft | 199 kts | 51° |
| 2026-05-05 05:39 | 35.80139 | -78.90086 | 11010 ft | 199 kts | 51° |
| 2026-05-05 05:40 | 35.80973 | -78.88711 | 11010 ft | 199 kts | 51° |
| 2026-05-05 05:40 | 35.81796 | -78.87352 | 11010 ft | 199 kts | 51° |
| 2026-05-05 05:40 | 35.82625 | -78.85984 | 11010 ft | 199 kts | 51° |
| 2026-05-05 05:40 | 35.83453 | -78.84618 | 11010 ft | 199 kts | 51° |
| 2026-05-05 05:41 | 35.84276 | -78.83257 | 11010 ft | 199 kts | 51° |
| 2026-05-05 05:41 | 35.85105 | -78.81886 | 11011 ft | 199 kts | 51° |
| 2026-05-05 05:41 | 35.85931 | -78.80520 | 11011 ft | 199 kts | 51° |
| 2026-05-05 05:41 | 35.86627 | -78.79057 | 11019 ft | 199 kts | 68° |
| 2026-05-05 05:42 | 35.87176 | -78.77443 | 10734 ft | 210 kts | 67° |
| 2026-05-05 05:42 | 35.87567 | -78.75706 | 10254 ft | 214 kts | 89° |
| 2026-05-05 05:42 | 35.87643 | -78.73878 | 9772 ft | 216 kts | 90° |
| 2026-05-05 05:42 | 35.87730 | -78.72030 | 9267 ft | 218 kts | 82° |
| 2026-05-05 05:43 | 35.88262 | -78.70297 | 8774 ft | 217 kts | 67° |
| 2026-05-05 05:43 | 35.88873 | -78.68604 | 8276 ft | 214 kts | 66° |
| 2026-05-05 05:43 | 35.89475 | -78.66963 | 7781 ft | 210 kts | 66° |
| 2026-05-05 05:43 | 35.90073 | -78.65340 | 7282 ft | 207 kts | 66° |
| 2026-05-05 05:44 | 35.90667 | -78.63741 | 6781 ft | 203 kts | 66° |
| 2026-05-05 05:44 | 35.91256 | -78.62169 | 6286 ft | 204 kts | 66° |
| 2026-05-05 05:44 | 35.91862 | -78.60564 | 5802 ft | 210 kts | 66° |
| 2026-05-05 05:44 | 35.92625 | -78.59029 | 5273 ft | 215 kts | 40° |
| 2026-05-05 05:45 | 35.93978 | -78.58427 | 4767 ft | 210 kts | 356° |
| 2026-05-05 05:45 | 35.95284 | -78.59042 | 4265 ft | 201 kts | 320° |
| 2026-05-05 05:45 | 35.96364 | -78.60096 | 3775 ft | 200 kts | 316° |
| 2026-05-05 05:45 | 35.97428 | -78.61192 | 3276 ft | 199 kts | 316° |
| 2026-05-05 05:46 | 35.98338 | -78.62422 | 2764 ft | 193 kts | 288° |
| 2026-05-05 05:46 | 35.98401 | -78.63968 | 2535 ft | 176 kts | 262° |
| 2026-05-05 05:46 | 35.98378 | -78.65454 | 2285 ft | 170 kts | 270° |
| 2026-05-05 05:46 | 35.98251 | -78.66827 | 2194 ft | 153 kts | 238° |
| 2026-05-05 05:47 | 35.97564 | -78.67757 | 2209 ft | 147 kts | 223° |
| 2026-05-05 05:47 | 35.96820 | -78.68625 | 2209 ft | 145 kts | 223° |
| 2026-05-05 05:47 | 35.96119 | -78.69468 | 2183 ft | 127 kts | 224° |
| 2026-05-05 05:47 | 35.95555 | -78.70158 | 2064 ft | 106 kts | 224° |
| 2026-05-05 05:48 | 35.95081 | -78.70744 | 1979 ft | 87 kts | 224° |
| 2026-05-05 05:48 | 35.94669 | -78.71254 | 1881 ft | 83 kts | 224° |
| 2026-05-05 05:48 | 35.94265 | -78.71757 | 1774 ft | 82 kts | 224° |
| 2026-05-05 05:48 | 35.93860 | -78.72259 | 1666 ft | 82 kts | 224° |
| 2026-05-05 05:49 | 35.93449 | -78.72768 | 1555 ft | 82 kts | 224° |
| 2026-05-05 05:49 | 35.93045 | -78.73268 | 1443 ft | 83 kts | 224° |
| 2026-05-05 05:49 | 35.92636 | -78.73776 | 1333 ft | 83 kts | 224° |
| 2026-05-05 05:49 | 35.92231 | -78.74283 | 1222 ft | 80 kts | 222° |
| 2026-05-05 05:50 | 35.91843 | -78.74765 | 1110 ft | 78 kts | 220° |
| 2026-05-05 05:50 | 35.91459 | -78.75234 | 1006 ft | 76 kts | 220° |
| 2026-05-05 05:50 | 35.91088 | -78.75691 | 904 ft | 76 kts | 220° |
| 2026-05-05 05:50 | 35.90712 | -78.76157 | 805 ft | 76 kts | 223° |
| 2026-05-05 05:51 | 35.90331 | -78.76627 | 699 ft | 79 kts | 223° |
| 2026-05-05 05:51 | 35.89954 | -78.77118 | 623 ft | 77 kts | 220° |
| 2026-05-05 05:51 | 35.89569 | -78.77578 | 517 ft | 77 kts | 219° |
| 2026-05-05 05:51 | 35.89182 | -78.78046 | 398 ft | 77 kts | 221° |
| 2026-05-05 05:52 | 35.88857 | -78.78451 | 387 ft | 48 kts | 225° |
| 2026-05-05 05:52 | 35.88746 | -78.78451 | 392 ft | 13 kts | 131° |
| 2026-05-05 05:52 | 35.88726 | -78.78426 | 393 ft | 8 kts | 137° |
| 2026-05-05 05:52 | 35.88703 | -78.78423 | 394 ft | 13 kts | 75° |
| 2026-05-05 05:53 | 35.88615 | -78.78427 | 398 ft | 18 kts | 169° |
| 2026-05-05 05:53 | 35.88594 | -78.78319 | 400 ft | 8 kts | 143° |
| 2026-05-05 05:53 | 35.88575 | -78.78321 | 401 ft | 0 kts | 216° |